Time;durP1;ratioP1;P1;durP2;ratioP2;P2;SDS_P1;SDS_P2;PMS_P1;PMS_P2;Temp;Humidity;BMP_temperature;BMP_pressure;BME280_temperature;BME280_humidity;BME280_pressure;Samples;Min_cycle;Max_cycle;Signal;HPM_P1;HPM_P2
2023/10/04 00:01:42;;;;;;;13.93;2.20;;;;;;;12.37;100.00;102169.97;4934700;29;20462;-80
2023/10/04 00:04:10;;;;;;;7.22;1.95;;;;;;;12.27;100.00;102166.94;4933866;29;20032;-80
2023/10/04 00:06:36;;;;;;;7.00;2.38;;;;;;;12.36;100.00;102181.91;4934680;29;20035;-81
2023/10/04 00:09:03;;;;;;;10.50;2.42;;;;;;;12.35;100.00;102184.75;4934233;29;20047;-80
2023/10/04 00:11:29;;;;;;;14.60;1.92;;;;;;;12.41;100.00;102189.88;4935844;29;20390;-80
2023/10/04 00:13:55;;;;;;;11.10;2.55;;;;;;;12.43;100.00;102183.31;4931384;29;20494;-80
2023/10/04 00:16:21;;;;;;;19.30;2.72;;;;;;;12.35;100.00;102180.19;4932142;29;20124;-81
2023/10/04 00:18:47;;;;;;;9.27;2.00;;;;;;;12.36;100.00;102192.91;4913571;29;20052;-80
2023/10/04 00:21:12;;;;;;;9.65;2.00;;;;;;;12.35;100.00;102193.00;4932782;29;20129;-80
2023/10/04 00:23:38;;;;;;;10.88;2.08;;;;;;;12.36;100.00;102192.91;4933795;29;20127;-80
2023/10/04 00:26:07;;;;;;;9.32;1.90;;;;;;;12.37;100.00;102188.31;4936614;29;20035;-80
2023/10/04 00:28:34;;;;;;;18.13;2.30;;;;;;;12.34;100.00;102199.50;4933003;29;20051;-80
2023/10/04 00:31:00;;;;;;;10.02;1.88;;;;;;;12.33;100.00;102193.13;4917036;29;20035;-80
2023/10/04 00:33:26;;;;;;;9.63;1.88;;;;;;;12.32;100.00;102203.22;4928833;29;20027;-80
2023/10/04 00:35:52;;;;;;;9.85;1.60;;;;;;;12.30;100.00;102196.94;4917578;29;20026;-80
2023/10/04 00:38:19;;;;;;;16.60;2.33;;;;;;;12.25;100.00;102198.25;4917504;29;20066;-80
2023/10/04 00:40:47;;;;;;;11.43;1.98;;;;;;;12.22;100.00;102204.81;4917893;29;20038;-80
2023/10/04 00:43:15;;;;;;;14.02;1.73;;;;;;;12.25;100.00;102204.59;4916317;29;20098;-80
2023/10/04 00:45:49;;;;;;;12.95;2.00;;;;;;;12.19;100.00;102210.50;4915907;29;20151;-80
2023/10/04 00:48:23;;;;;;;8.73;2.20;;;;;;;12.19;100.00;102212.38;4910154;29;20059;-80
2023/10/04 00:50:49;;;;;;;11.70;1.88;;;;;;;12.18;100.00;102221.56;4934339;29;20506;-81
2023/10/04 00:53:21;;;;;;;12.15;2.13;;;;;;;12.13;100.00;102205.38;4914119;29;20176;-80
2023/10/04 00:55:49;;;;;;;7.95;1.70;;;;;;;12.21;100.00;102216.75;4931160;29;20059;-80
2023/10/04 00:58:18;;;;;;;12.48;2.70;;;;;;;12.17;100.00;102206.06;4916576;29;20138;-81
2023/10/04 01:00:43;;;;;;;14.35;2.17;;;;;;;12.20;100.00;102214.09;4934705;29;20031;-80
2023/10/04 01:03:09;;;;;;;13.80;2.05;;;;;;;12.22;100.00;102207.56;4933008;29;20135;-81
2023/10/04 01:05:46;;;;;;;11.90;2.13;;;;;;;12.28;100.00;102214.50;4932849;29;20036;-80
2023/10/04 01:08:14;;;;;;;16.90;2.78;;;;;;;12.32;100.00;102213.34;4914733;29;20023;-80
2023/10/04 01:10:39;;;;;;;14.27;2.75;;;;;;;12.37;100.00;102213.91;4927264;29;20066;-80
2023/10/04 01:13:09;;;;;;;9.45;3.08;;;;;;;12.35;100.00;102218.63;4918463;29;20063;-80
2023/10/04 01:15:39;;;;;;;11.88;2.28;;;;;;;12.44;100.00;102229.00;4918488;29;20035;-80
2023/10/04 01:18:06;;;;;;;10.23;2.70;;;;;;;12.44;100.00;102229.00;4923210;29;20123;-80
2023/10/04 01:20:33;;;;;;;16.40;3.38;;;;;;;12.45;100.00;102236.28;4934148;29;20046;-80
2023/10/04 01:23:06;;;;;;;20.20;3.00;;;;;;;12.42;100.00;102230.97;4932265;29;20082;-80
2023/10/04 01:25:32;;;;;;;;;;;;;;;12.45;100.00;102229.91;4894027;29;20044;-80
2023/10/04 01:27:59;;;;;;;15.07;2.15;;;;;;;12.41;100.00;102228.31;4915733;29;19919;-80
2023/10/04 01:30:25;;;;;;;11.35;2.45;;;;;;;12.47;100.00;102233.44;4931945;29;20055;-80
2023/10/04 01:32:51;;;;;;;21.95;2.58;;;;;;;12.50;100.00;102236.84;4931892;29;20058;-80
2023/10/04 01:35:24;;;;;;;16.58;2.33;;;;;;;12.55;100.00;102227.44;4933850;29;20015;-80
2023/10/04 01:37:52;;;;;;;;;;;;;;;12.47;100.00;102239.78;4932066;29;20032;-81
2023/10/04 01:40:19;;;;;;;24.10;2.50;;;;;;;12.48;100.00;102236.06;4930516;29;19923;-81
2023/10/04 01:42:46;;;;;;;17.27;2.30;;;;;;;12.45;100.00;102233.53;4927816;29;20046;-80
2023/10/04 01:45:15;;;;;;;17.13;3.08;;;;;;;12.39;100.00;102238.53;4927734;29;20035;-80
2023/10/04 01:47:41;;;;;;;14.38;2.38;;;;;;;12.37;100.00;102235.00;4932484;29;20027;-80
2023/10/04 01:50:11;;;;;;;15.60;1.98;;;;;;;12.42;100.00;102252.94;4930089;29;20398;-80
2023/10/04 01:52:38;;;;;;;12.35;2.10;;;;;;;12.40;100.00;102235.69;4917315;29;20043;-80
2023/10/04 01:55:10;;;;;;;10.52;2.05;;;;;;;12.41;100.00;102234.72;4934580;29;20020;-80
2023/10/04 01:57:40;;;;;;;15.57;2.67;;;;;;;12.38;100.00;102247.75;4929236;29;20035;-80
2023/10/04 02:00:09;;;;;;;15.13;2.30;;;;;;;12.40;100.00;102243.06;4931061;29;20166;-81
2023/10/04 02:02:39;;;;;;;10.40;1.85;;;;;;;12.44;100.00;102240.00;4933734;29;20443;-80
2023/10/04 02:05:09;;;;;;;16.42;2.15;;;;;;;12.40;100.00;102234.81;4931908;29;20032;-80
2023/10/04 02:07:38;;;;;;;13.43;2.83;;;;;;;12.35;100.00;102237.84;4933185;29;20178;-80
2023/10/04 02:10:09;;;;;;;18.70;2.63;;;;;;;12.32;100.00;102227.94;4930867;29;20024;-81
2023/10/04 02:12:35;;;;;;;11.20;2.15;;;;;;;12.24;100.00;102222.06;4944724;29;20036;-81
2023/10/04 02:15:00;;;;;;;10.27;2.00;;;;;;;12.30;100.00;102215.31;4946236;29;20164;-81
2023/10/04 02:17:26;;;;;;;13.48;1.92;;;;;;;12.31;100.00;102220.69;4927589;29;20122;-81
2023/10/04 02:19:53;;;;;;;13.23;2.42;;;;;;;12.28;100.00;102226.38;4914932;29;20027;-81
2023/10/04 02:22:20;;;;;;;11.55;2.20;;;;;;;12.31;100.00;102231.69;4900145;29;20549;-81
2023/10/04 02:24:47;;;;;;;9.10;2.05;;;;;;;12.26;100.00;102224.69;4911754;29;20046;-80
2023/10/04 02:27:12;;;;;;;13.55;2.47;;;;;;;12.24;100.00;102230.28;4931561;29;20046;-81
2023/10/04 02:29:38;;;;;;;15.40;2.97;;;;;;;12.25;100.00;102234.81;4927278;29;20059;-80
2023/10/04 02:32:09;;;;;;;12.13;2.50;;;;;;;12.21;100.00;102233.22;4935045;29;20035;-81
2023/10/04 02:34:41;;;;;;;15.20;2.67;;;;;;;12.20;100.00;102227.84;4932363;29;20043;-80
2023/10/04 02:37:07;;;;;;;15.20;2.40;;;;;;;12.21;100.00;102233.22;4936510;29;20401;-80
2023/10/04 02:39:39;;;;;;;14.88;3.25;;;;;;;12.23;100.00;102231.28;4934990;29;20561;-81
2023/10/04 02:42:09;;;;;;;13.13;2.67;;;;;;;12.25;100.00;102234.81;4919130;29;20028;-80
2023/10/04 02:44:39;;;;;;;9.00;2.30;;;;;;;12.23;100.00;102220.31;4935488;29;20039;-80
2023/10/04 02:47:08;;;;;;;9.93;2.88;;;;;;;12.26;100.00;102233.81;4933123;29;20490;-80
2023/10/04 02:49:37;;;;;;;18.80;3.17;;;;;;;12.23;100.00;102228.56;4920458;29;20043;-79
2023/10/04 02:52:05;;;;;;;15.20;2.63;;;;;;;12.30;100.00;102238.16;4932731;29;20086;-78
2023/10/04 02:54:31;;;;;;;10.52;2.40;;;;;;;12.26;100.00;102233.81;4937264;29;20054;-78
2023/10/04 02:56:58;;;;;;;20.30;3.33;;;;;;;12.20;100.00;102226.00;4935411;29;20528;-79
2023/10/04 02:59:25;;;;;;;14.73;2.47;;;;;;;12.19;100.00;102231.59;4919303;29;20028;-79
2023/10/04 03:01:50;;;;;;;21.83;3.03;;;;;;;12.22;100.00;102240.50;4937103;29;20027;-79
2023/10/04 03:04:16;;;;;;;14.23;2.40;;;;;;;12.18;100.00;102244.41;4913305;29;20039;-79
2023/10/04 03:06:41;;;;;;;15.50;3.33;;;;;;;12.15;100.00;102241.88;4900353;29;20078;-79
2023/10/04 03:09:08;;;;;;;14.43;2.42;;;;;;;12.12;100.00;102244.81;4947453;29;20036;-80
2023/10/04 03:11:34;;;;;;;13.95;2.70;;;;;;;12.09;100.00;102236.78;4935896;29;20043;-79
2023/10/04 03:13:59;;;;;;;12.70;2.80;;;;;;;12.11;100.00;102237.56;4936802;29;20119;-80
2023/10/04 03:16:25;;;;;;;12.05;2.58;;;;;;;12.06;100.00;102239.72;4935768;29;20066;-79
2023/10/04 03:18:51;;;;;;;9.70;2.40;;;;;;;12.09;100.00;102250.50;4934606;29;20063;-79
2023/10/04 03:21:26;;;;;;;16.95;2.97;;;;;;;12.04;100.00;102236.19;4927700;29;20059;-79
2023/10/04 03:23:54;;;;;;;15.73;2.20;;;;;;;12.11;100.00;102251.28;4919004;29;20055;-79
2023/10/04 03:26:22;;;;;;;14.82;3.00;;;;;;;12.13;100.00;102249.31;4933973;29;20035;-79
2023/10/04 03:28:48;;;;;;;17.52;2.42;;;;;;;12.10;100.00;102255.00;4933295;29;20069;-79
2023/10/04 03:31:14;;;;;;;18.83;2.90;;;;;;;12.09;100.00;102253.25;4934981;29;20090;-79
2023/10/04 03:33:43;;;;;;;16.83;2.70;;;;;;;12.05;100.00;102251.66;4929807;29;20502;-79
2023/10/04 03:36:09;;;;;;;8.68;2.42;;;;;;;12.05;100.00;102257.16;4918403;29;20047;-80
2023/10/04 03:38:34;;;;;;;22.20;3.17;;;;;;;12.06;100.00;102264.41;4919011;29;20032;-79
2023/10/04 03:41:03;;;;;;;19.95;2.58;;;;;;;12.06;100.00;102257.06;4913266;29;20462;-79
2023/10/04 03:43:29;;;;;;;15.77;2.65;;;;;;;12.13;100.00;102266.69;4903212;29;20044;-80
2023/10/04 03:45:54;;;;;;;19.83;3.15;;;;;;;12.11;100.00;102270.50;4914917;29;20047;-80
2023/10/04 03:48:21;;;;;;;21.63;2.47;;;;;;;12.16;100.00;102282.06;4901812;29;20031;-80
2023/10/04 03:50:50;;;;;;;15.75;2.80;;;;;;;12.07;100.00;102268.94;4934778;29;20031;-80
2023/10/04 03:53:16;;;;;;;16.95;2.33;;;;;;;12.16;100.00;102272.97;4935315;29;20394;-79
2023/10/04 03:55:43;;;;;;;18.30;2.70;;;;;;;12.08;100.00;102260.56;4899101;29;20111;-80
2023/10/04 03:58:10;;;;;;;18.23;2.47;;;;;;;12.05;100.00;102262.63;4901345;29;20028;-79
2023/10/04 04:00:36;;;;;;;16.13;2.55;;;;;;;11.98;100.00;102262.16;4918724;29;20028;-80
2023/10/04 04:03:04;;;;;;;16.67;2.40;;;;;;;11.90;100.00;102259.88;4916676;29;20489;-80
2023/10/04 04:05:31;;;;;;;7.68;2.17;;;;;;;11.88;100.00;102248.06;4939315;29;20040;-80
2023/10/04 04:07:56;;;;;;;22.75;2.33;;;;;;;11.89;100.00;102254.47;4918701;29;20122;-79
2023/10/04 04:10:24;;;;;;;16.83;2.70;;;;;;;11.89;100.00;102265.44;4901388;29;20130;-80
2023/10/04 04:12:50;;;;;;;17.20;2.60;;;;;;;11.86;100.00;102241.81;4913705;29;20035;-79
2023/10/04 04:15:18;;;;;;;8.23;2.15;;;;;;;11.82;100.00;102251.19;4915624;29;20047;-79
2023/10/04 04:17:45;;;;;;;16.23;2.50;;;;;;;11.71;100.00;102243.66;4931127;29;20031;-79
2023/10/04 04:20:14;;;;;;;20.73;3.40;;;;;;;11.69;100.00;102248.34;4915189;29;20028;-79
2023/10/04 04:22:50;;;;;;;14.70;2.58;;;;;;;11.66;100.00;102248.53;4901991;29;20482;-79
2023/10/04 04:25:19;;;;;;;13.55;3.25;;;;;;;11.64;100.00;102256.00;4935728;29;20139;-79
2023/10/04 04:27:45;;;;;;;20.50;3.25;;;;;;;11.59;100.00;102252.63;4934175;29;20040;-79
2023/10/04 04:30:46;;;;;;;15.93;2.38;;;;;;;11.55;100.00;102245.56;4934413;29;20047;-78
2023/10/04 04:33:06;;;;;;;;;;;;;;;11.55;100.00;102246.44;4930995;29;20036;-79
2023/10/04 04:38:17;;;;;;;17.88;3.42;;;;;;;11.46;100.00;102247.03;4919606;29;20635;-78
2023/10/04 04:40:55;;;;;;;18.80;3.67;;;;;;;11.43;100.00;102238.97;4930235;29;20035;-79
2023/10/04 04:45:53;;;;;;;17.48;2.63;;;;;;;11.35;100.00;102249.53;4934789;29;20394;-79
2023/10/04 04:48:23;;;;;;;19.63;2.90;;;;;;;11.37;100.00;102247.56;4934742;29;20466;-79
2023/10/04 04:51:08;;;;;;;18.95;3.05;;;;;;;11.32;100.00;102246.97;4917969;29;20044;-79
2023/10/04 04:53:34;;;;;;;18.05;2.67;;;;;;;11.27;100.00;102239.00;4933233;29;20032;-79
2023/10/04 04:56:01;;;;;;;14.82;2.72;;;;;;;11.25;100.00;102246.44;4919510;29;20027;-79
2023/10/04 04:58:28;;;;;;;18.90;2.60;;;;;;;11.27;100.00;102260.06;4933037;29;20043;-78
2023/10/04 05:01:01;;;;;;;18.27;4.25;;;;;;;11.21;100.00;102259.47;4931600;29;20359;-78
2023/10/04 05:03:27;;;;;;;16.73;2.78;;;;;;;11.20;100.00;102254.06;4915017;29;20494;-78
2023/10/04 05:05:55;;;;;;;19.63;2.60;;;;;;;11.17;100.00;102252.38;4915963;29;20478;-78
2023/10/04 05:08:21;;;;;;;16.80;2.58;;;;;;;11.16;100.00;102252.47;4932272;29;20036;-78
2023/10/04 05:10:49;;;;;;;12.77;2.67;;;;;;;11.08;100.00;102249.28;4927011;29;20131;-78
2023/10/04 05:13:18;;;;;;;17.55;2.83;;;;;;;11.06;100.00;102257.59;4931576;29;20035;-78
2023/10/04 05:15:47;;;;;;;15.70;3.00;;;;;;;11.08;100.00;102247.44;4915675;29;20031;-78
2023/10/04 05:18:17;;;;;;;24.48;3.20;;;;;;;11.10;100.00;102244.59;4914030;29;20720;-78
2023/10/04 05:20:54;;;;;;;21.73;3.35;;;;;;;11.09;100.00;102251.94;4916412;29;20051;-78
2023/10/04 05:23:22;;;;;;;28.90;4.32;;;;;;;11.13;100.00;102269.09;4916932;29;20059;-78
2023/10/04 05:25:48;;;;;;;22.10;2.88;;;;;;;11.03;100.00;102271.47;4928434;29;20501;-78
2023/10/04 05:28:13;;;;;;;20.13;2.85;;;;;;;11.01;100.00;102266.09;4932295;29;20035;-78
2023/10/04 05:30:41;;;;;;;17.60;2.47;;;;;;;10.98;100.00;102279.97;4923679;29;20051;-78
2023/10/04 05:33:10;;;;;;;19.63;3.97;;;;;;;11.08;100.00;102305.00;4930202;29;20027;-79
2023/10/04 05:35:37;;;;;;;16.98;3.25;;;;;;;11.07;100.00;102316.03;4930492;29;20036;-78
2023/10/04 05:38:11;;;;;;;19.05;3.90;;;;;;;11.00;100.00;102310.94;4942908;29;20040;-78
2023/10/04 05:40:38;;;;;;;20.30;3.33;;;;;;;10.95;100.00;102307.56;4933985;29;20023;-78
2023/10/04 05:43:06;;;;;;;15.30;3.35;;;;;;;10.92;100.00;102301.38;4931308;29;20066;-79
2023/10/04 05:45:32;;;;;;;23.60;3.53;;;;;;;10.92;100.00;102312.31;4913866;29;20032;-78
2023/10/04 05:47:59;;;;;;;23.45;4.65;;;;;;;10.90;100.00;102289.63;4915495;29;20027;-78
2023/10/04 05:50:32;;;;;;;20.80;3.40;;;;;;;10.91;100.00;102289.53;4933723;29;20051;-79
2023/10/04 05:52:58;;;;;;;;;;;;;;;10.91;100.00;102292.25;4927598;29;20035;-78
2023/10/04 05:55:29;;;;;;;12.30;3.13;;;;;;;10.90;100.00;102292.34;4931374;29;20034;-78
2023/10/04 05:57:55;;;;;;;15.88;3.05;;;;;;;10.94;100.00;102300.31;4931395;29;20478;-78
2023/10/04 06:00:33;;;;;;;18.35;3.38;;;;;;;10.81;100.00;102297.38;4933852;29;20118;-78
2023/10/04 06:03:01;;;;;;;18.40;3.35;;;;;;;10.93;100.00;102301.28;4933305;29;20044;-79
2023/10/04 06:05:28;;;;;;;9.90;2.78;;;;;;;10.94;100.00;102302.19;4932155;29;20039;-78
2023/10/04 06:07:58;;;;;;;16.98;3.70;;;;;;;10.94;100.00;102315.88;4923559;29;20119;-77
2023/10/04 06:10:25;;;;;;;25.23;3.45;;;;;;;10.96;100.00;102313.94;4931055;29;20032;-78
2023/10/04 06:12:54;;;;;;;18.40;3.55;;;;;;;11.14;100.00;102334.78;4935114;29;20047;-78
2023/10/04 06:15:21;;;;;;;21.95;4.68;;;;;;;11.08;100.00;102326.03;4932141;29;20054;-78
2023/10/04 06:17:47;;;;;;;20.65;3.78;;;;;;;11.18;100.00;102328.19;4930277;29;20027;-78
2023/10/04 06:22:50;;;;;;;23.52;3.35;;;;;;;11.17;100.00;102331.88;4932547;29;20043;-78
2023/10/04 06:25:18;;;;;;;12.88;4.07;;;;;;;11.15;100.00;102324.69;4930552;29;20139;-77
2023/10/04 06:27:44;;;;;;;12.40;2.95;;;;;;;11.22;100.00;102343.44;4941670;29;20039;-96
2023/10/04 06:30:12;;;;;;;22.17;3.90;;;;;;;11.16;100.00;102343.81;4929392;29;20062;-92
2023/10/04 06:32:38;;;;;;;21.60;3.70;;;;;;;11.18;100.00;102351.94;4921808;29;20024;-88
2023/10/04 06:35:08;;;;;;;22.33;3.28;;;;;;;11.21;100.00;102341.72;4936396;29;20028;-89
2023/10/04 06:37:34;;;;;;;23.25;3.78;;;;;;;11.37;100.00;102341.66;4934260;29;20486;-91
2023/10/04 06:40:01;;;;;;;23.38;3.20;;;;;;;11.42;100.00;102349.63;4898361;29;20043;-93
2023/10/04 06:42:26;;;;;;;17.83;3.75;;;;;;;11.50;100.00;102357.44;4895685;29;20035;-91
2023/10/04 06:44:55;;;;;;;15.40;3.00;;;;;;;11.49;100.00;102359.25;4921048;29;20027;-96
2023/10/04 06:47:23;;;;;;;23.70;3.75;;;;;;;11.49;100.00;102363.88;4922834;29;20047;-93
2023/10/04 06:49:48;;;;;;;18.63;3.70;;;;;;;11.55;100.00;102367.13;4905105;29;20070;-92
2023/10/04 06:52:14;;;;;;;19.38;3.67;;;;;;;11.62;100.00;102359.41;4904433;29;20028;-90
2023/10/04 06:54:40;;;;;;;27.27;4.07;;;;;;;11.64;100.00;102353.84;4911643;29;20132;-91
2023/10/04 06:57:08;;;;;;;17.48;3.60;;;;;;;11.70;100.00;102354.38;4903677;29;20075;-91
2023/10/04 06:59:33;;;;;;;15.73;3.58;;;;;;;11.84;100.00;102356.28;4921575;29;20043;-89
2023/10/04 07:01:59;;;;;;;22.20;4.50;;;;;;;11.74;100.00;102361.44;4920061;29;20035;-93
2023/10/04 07:04:26;;;;;;;19.42;3.67;;;;;;;11.98;100.00;102365.59;4912789;29;20068;-91
2023/10/04 07:06:51;;;;;;;21.95;3.00;;;;;;;11.94;100.00;102365.75;4936615;29;20044;-93
2023/10/04 07:09:17;;;;;;;16.98;2.88;;;;;;;12.04;100.00;102365.22;4901416;29;20043;-93
2023/10/04 07:11:43;;;;;;;25.90;2.92;;;;;;;12.20;100.00;102370.63;4903602;29;20024;-92
2023/10/04 07:14:12;;;;;;;21.90;3.25;;;;;;;12.09;100.00;102376.81;4910656;29;20461;-90
2023/10/04 07:16:38;;;;;;;25.35;3.85;;;;;;;12.18;100.00;102375.34;4920261;29;20031;-91
2023/10/04 07:19:04;;;;;;;16.33;3.40;;;;;;;12.40;100.00;102374.91;4920639;29;20509;-91
2023/10/04 07:21:29;;;;;;;14.60;3.33;;;;;;;12.31;100.00;102380.00;4922202;29;20051;-91
2023/10/04 07:23:55;;;;;;;16.73;2.58;;;;;;;12.28;100.00;102363.72;4913788;29;20036;-93
2023/10/04 07:26:20;;;;;;;21.30;3.45;;;;;;;12.46;100.00;102369.00;4932535;29;20114;-95
2023/10/04 07:28:46;;;;;;;16.65;3.75;;;;;;;12.48;100.00;102378.94;4909823;29;20035;-93
2023/10/04 07:31:12;;;;;;;22.17;3.13;;;;;;;12.66;100.00;102381.50;4931677;29;20052;-92
2023/10/04 07:33:37;;;;;;;18.83;3.28;;;;;;;12.63;100.00;102381.69;4922844;29;20381;-94
2023/10/04 07:36:04;;;;;;;18.65;3.28;;;;;;;12.69;100.00;102382.19;4948122;29;20031;-91
2023/10/04 07:38:30;;;;;;;20.90;4.15;;;;;;;12.78;100.00;102379.84;4906639;29;20055;-79
2023/10/04 07:40:55;;;;;;;26.55;3.97;;;;;;;12.90;100.00;102386.41;4932233;29;20074;-79
2023/10/04 07:43:21;;;;;;;15.48;3.42;;;;;;;12.80;100.00;102383.38;4937208;29;20036;-79
2023/10/04 07:45:46;;;;;;;21.67;4.22;;;;;;;13.05;100.00;102388.16;4915240;29;20058;-79
2023/10/04 07:48:15;;;;;;;17.95;3.60;;;;;;;13.24;100.00;102396.97;4920716;29;20043;-79
2023/10/04 07:50:40;;;;;;;20.33;4.75;;;;;;;13.59;100.00;102393.78;4931531;29;20035;-80
2023/10/04 07:53:06;;;;;;;15.50;3.45;;;;;;;13.50;100.00;102393.53;4929965;29;20036;-80
2023/10/04 07:55:33;;;;;;;13.90;3.13;;;;;;;13.66;100.00;102394.25;4916837;29;20809;-80
2023/10/04 07:58:03;;;;;;;19.83;3.72;;;;;;;13.77;100.00;102407.28;4920157;29;20411;-79
2023/10/04 08:00:29;;;;;;;22.67;3.92;;;;;;;14.10;100.00;102401.34;4940572;29;20040;-79
2023/10/04 08:02:57;;;;;;;19.00;3.72;;;;;;;13.77;100.00;102404.53;4930380;29;20442;-79
2023/10/04 08:05:25;;;;;;;23.45;4.15;;;;;;;13.79;100.00;102406.19;4934862;29;20150;-80
2023/10/04 08:07:52;;;;;;;23.85;3.13;;;;;;;14.09;100.00;102402.31;4934269;29;20027;-79
2023/10/04 08:10:23;;;;;;;18.02;3.95;;;;;;;13.85;100.00;102418.66;4934654;29;20167;-79
2023/10/04 08:12:51;;;;;;;18.80;3.50;;;;;;;14.04;100.00;102414.66;4934401;29;20067;-80
2023/10/04 08:15:19;;;;;;;19.05;3.65;;;;;;;14.51;100.00;102411.34;4934858;29;20505;-79
2023/10/04 08:17:48;;;;;;;14.60;3.95;;;;;;;14.30;100.00;102415.59;4935732;29;20111;-79
2023/10/04 08:20:14;;;;;;;16.33;3.80;;;;;;;14.51;100.00;102404.91;4935585;29;20059;-79
2023/10/04 08:22:43;;;;;;;18.35;3.50;;;;;;;14.64;100.00;102402.22;4917629;29;20618;-79
2023/10/04 08:25:21;;;;;;;19.92;3.60;;;;;;;14.91;100.00;102401.22;4934527;29;20549;-79
2023/10/04 08:27:47;;;;;;;14.27;3.20;;;;;;;14.55;100.00;102400.09;4916454;29;20042;-79
2023/10/04 08:30:14;;;;;;;17.08;3.35;;;;;;;14.61;100.00;102406.09;4934453;29;20142;-79
2023/10/04 08:32:41;;;;;;;16.10;3.63;;;;;;;14.78;100.00;102404.84;4935095;29;20130;-79
2023/10/04 08:35:33;;;;;;;23.80;3.55;;;;;;;14.87;100.00;102400.53;4935627;29;20068;-79
2023/10/04 08:38:00;;;;;;;17.45;3.67;;;;;;;14.84;100.00;102400.78;4928077;29;20458;-77
2023/10/04 08:40:27;;;;;;;14.35;3.35;;;;;;;14.72;100.00;102408.06;4931569;29;20062;-78
2023/10/04 08:42:55;;;;;;;15.43;2.97;;;;;;;14.58;100.00;102413.66;4913640;29;20035;-79
2023/10/04 08:45:22;;;;;;;22.13;4.80;;;;;;;14.48;100.00;102414.31;4915673;29;20058;-79
2023/10/04 08:47:55;;;;;;;21.05;3.17;;;;;;;14.93;100.00;102407.50;4931865;29;20047;-78
2023/10/04 08:50:31;;;;;;;18.70;4.30;;;;;;;14.87;100.00;102415.22;4931829;29;20442;-79
2023/10/04 08:53:05;;;;;;;27.40;4.53;;;;;;;15.12;100.00;102412.53;4933364;29;20537;-79
2023/10/04 08:55:41;;;;;;;17.67;3.13;;;;;;;15.06;100.00;102408.38;4933008;29;20043;-79
2023/10/04 08:58:09;;;;;;;18.17;3.25;;;;;;;15.21;100.00;102418.25;4931881;29;20034;-79
2023/10/04 09:00:35;;;;;;;15.50;2.65;;;;;;;15.37;100.00;102423.53;4932675;29;20490;-78
2023/10/04 09:03:04;;;;;;;20.17;3.50;;;;;;;15.51;100.00;102414.25;4932206;29;20027;-79
2023/10/04 09:05:33;;;;;;;20.75;3.38;;;;;;;15.83;100.00;102408.16;4929719;29;20035;-79
2023/10/04 09:07:58;;;;;;;17.33;3.00;;;;;;;15.74;100.00;102409.72;4926045;29;20031;-79
2023/10/04 09:10:25;;;;;;;20.05;3.55;;;;;;;15.41;100.00;102424.19;4932935;29;20030;-79
2023/10/04 09:12:51;;;;;;;20.02;3.50;;;;;;;15.63;100.00;102412.44;4934977;29;20031;-80
2023/10/04 09:15:16;;;;;;;21.50;3.28;;;;;;;15.91;100.00;102422.28;4931805;29;20031;-79
2023/10/04 09:17:55;;;;;;;20.65;3.35;;;;;;;16.09;100.00;102417.22;4933917;29;20028;-79
2023/10/04 09:20:24;;;;;;;11.45;2.33;;;;;;;16.17;100.00;102424.91;4928483;29;20028;-79
2023/10/04 09:22:50;;;;;;;19.50;3.28;;;;;;;16.04;100.00;102429.63;4931291;29;20075;-79
2023/10/04 09:25:18;;;;;;;17.80;3.03;;;;;;;15.88;100.00;102419.75;4932938;29;20032;-79
2023/10/04 09:27:56;;;;;;;15.10;2.90;;;;;;;15.96;100.00;102425.56;4947805;29;20410;-79
2023/10/04 09:30:23;;;;;;;14.25;3.60;;;;;;;16.66;100.00;102428.44;4915274;29;20075;-79
2023/10/04 09:32:51;;;;;;;22.02;3.05;;;;;;;16.46;100.00;102421.72;4925433;29;20036;-79
2023/10/04 09:35:20;;;;;;;21.17;3.58;;;;;;;16.40;100.00;102416.66;4934290;29;20038;-79
2023/10/04 09:37:49;;;;;;;20.42;3.97;;;;;;;16.35;100.00;102420.69;4930599;29;20042;-79
2023/10/04 09:40:17;;;;;;;20.95;3.47;;;;;;;16.51;100.00;102408.41;4916922;29;20114;-79
2023/10/04 09:42:46;;;;;;;13.35;3.03;;;;;;;16.91;100.00;102408.03;4932282;29;20035;-80
2023/10/04 09:45:12;;;;;;;26.73;3.35;;;;;;;16.88;100.00;102406.38;4933202;29;20036;-80
2023/10/04 09:47:38;;;;;;;16.45;3.63;;;;;;;16.71;100.00;102399.41;4916855;29;20554;-79
2023/10/04 09:50:11;;;;;;;15.85;2.72;;;;;;;16.49;100.00;102410.41;4931414;29;20395;-79
2023/10/04 09:52:38;;;;;;;13.48;3.30;;;;;;;16.76;100.00;102406.44;4933144;29;20059;-79
2023/10/04 09:55:05;;;;;;;18.23;2.63;;;;;;;16.79;100.00;102408.97;4922608;29;20099;-78
2023/10/04 09:57:34;;;;;;;15.95;2.80;;;;;;;16.76;100.00;102404.56;4928725;29;20186;-88
2023/10/04 10:00:01;;;;;;;21.35;3.13;;;;;;;16.48;100.00;102414.22;4931382;29;20435;-88
2023/10/04 10:02:34;;;;;;;15.60;2.65;;;;;;;16.39;100.00;102421.34;4918387;29;20447;-90
2023/10/04 10:05:01;;;;;;;17.40;2.58;;;;;;;16.58;100.00;102423.53;4935034;29;20031;-89
2023/10/04 10:07:33;;;;;;;18.52;2.92;;;;;;;16.85;100.00;102420.44;4914837;29;20044;-90
2023/10/04 10:10:11;;;;;;;11.55;2.05;;;;;;;17.01;100.00;102425.63;4934370;29;20490;-88
2023/10/04 10:12:38;;;;;;;15.60;2.80;;;;;;;17.06;100.00;102425.25;4935208;29;20028;-90
2023/10/04 10:15:05;;;;;;;14.05;2.50;;;;;;;17.17;100.00;102405.88;4903297;29;20051;-89
2023/10/04 10:17:33;;;;;;;15.43;3.08;;;;;;;16.84;100.00;102407.59;4929274;29;20024;-89
2023/10/04 10:19:59;;;;;;;11.65;2.70;;;;;;;16.63;100.00;102414.88;4918149;29;20035;-86
2023/10/04 10:22:26;;;;;;;16.40;2.45;;;;;;;17.09;100.00;102417.56;4935728;29;20026;-90
2023/10/04 10:24:55;;;;;;;17.52;2.80;;;;;;;17.36;100.00;102416.28;4900735;29;20044;-88
2023/10/04 10:27:23;;;;;;;14.68;2.95;;;;;;;17.24;100.00;102423.72;4949245;28;20115;-92
2023/10/04 10:29:50;;;;;;;11.02;2.58;;;;;;;17.16;100.00;102414.31;4937465;29;20130;-90
2023/10/04 10:32:20;;;;;;;12.35;2.80;;;;;;;16.99;100.00;102421.25;4918466;29;20039;-91
2023/10/04 10:34:49;;;;;;;16.25;3.13;;;;;;;16.81;100.00;102424.44;4921169;29;20047;-90
2023/10/04 10:37:18;;;;;;;18.10;3.15;;;;;;;16.96;100.00;102425.13;4916135;29;20039;-90
2023/10/04 10:39:51;;;;;;;11.35;2.97;;;;;;;17.00;100.00;102422.97;4935959;29;20024;-92
2023/10/04 10:42:18;;;;;;;13.43;3.03;;;;;;;16.74;100.00;102403.78;4913330;29;20036;-89
2023/10/04 10:44:44;;;;;;;14.98;2.65;;;;;;;16.85;100.00;102405.75;4939493;29;20036;-91
2023/10/04 10:47:22;;;;;;;13.45;2.97;;;;;;;16.90;100.00;102406.25;4941977;29;20031;-90
2023/10/04 10:50:12;;;;;;;10.45;2.80;;;;;;;16.77;100.00;102408.22;4945282;29;20049;-90
2023/10/04 10:52:41;;;;;;;16.67;2.65;;;;;;;16.71;100.00;102404.94;4937496;29;20398;-91
2023/10/04 10:55:19;;;;;;;11.75;2.40;;;;;;;16.98;100.00;102411.16;4935740;29;20035;-92
2023/10/04 10:57:48;;;;;;;16.30;2.85;;;;;;;17.48;100.00;102403.34;4943423;29;20059;-91
2023/10/04 11:00:19;;;;;;;17.20;3.08;;;;;;;17.42;100.00;102410.25;4943452;29;20032;-91
2023/10/04 11:02:46;;;;;;;14.95;3.40;;;;;;;17.71;100.00;102406.94;4947578;29;20027;-94
2023/10/04 11:05:13;;;;;;;16.80;3.40;;;;;;;17.42;100.00;102404.72;4908314;29;20164;-90
2023/10/04 11:07:39;;;;;;;18.27;3.47;;;;;;;17.48;100.00;102407.97;4936683;29;20482;-79
2023/10/04 11:10:06;;;;;;;16.75;3.42;;;;;;;17.49;100.00;102405.06;4937393;29;20497;-78
2023/10/04 11:12:38;;;;;;;12.25;3.03;;;;;;;17.55;100.00;102404.56;4935025;29;20483;-80
2023/10/04 11:15:07;;;;;;;13.75;3.33;;;;;;;17.59;100.00;102400.53;4936806;29;20043;-80
2023/10/04 11:17:35;;;;;;;17.83;4.00;;;;;;;17.54;100.00;102397.25;4931891;29;20035;-80
2023/10/04 11:20:09;;;;;;;18.58;3.58;;;;;;;17.68;100.00;102393.34;4932635;29;20036;-80
2023/10/04 11:22:36;;;;;;;17.45;3.70;;;;;;;17.79;100.00;102392.41;4935869;29;20123;-77
2023/10/04 11:25:02;;;;;;;21.38;3.85;;;;;;;17.75;100.00;102388.16;4938853;29;20031;-77